sensor_id;sensor_type;location;lat;lon;timestamp;temperature;humidity
25825;DHT22;13658;44.534;18.694;2022-12-10T00:01:31;11.80;99.90
25825;DHT22;13658;44.534;18.694;2022-12-10T00:03:58;11.60;99.90
25825;DHT22;13658;44.534;18.694;2022-12-10T00:06:26;11.60;99.90
25825;DHT22;13658;44.534;18.694;2022-12-10T00:08:53;11.50;99.90
25825;DHT22;13658;44.534;18.694;2022-12-10T00:11:21;11.50;99.90
25825;DHT22;13658;44.534;18.694;2022-12-10T00:13:48;11.50;99.90
25825;DHT22;13658;44.534;18.694;2022-12-10T00:16:16;11.50;99.90
25825;DHT22;13658;44.534;18.694;2022-12-10T00:18:42;11.50;99.90
25825;DHT22;13658;44.534;18.694;2022-12-10T00:21:11;11.50;99.90
25825;DHT22;13658;44.534;18.694;2022-12-10T00:23:38;11.40;99.90
25825;DHT22;13658;44.534;18.694;2022-12-10T00:26:10;11.50;99.90
25825;DHT22;13658;44.534;18.694;2022-12-10T00:28:37;11.50;99.90
25825;DHT22;13658;44.534;18.694;2022-12-10T00:31:08;11.60;99.90
25825;DHT22;13658;44.534;18.694;2022-12-10T00:33:35;11.70;99.90
25825;DHT22;13658;44.534;18.694;2022-12-10T00:36:06;11.70;99.90
25825;DHT22;13658;44.534;18.694;2022-12-10T00:38:33;11.70;99.90
25825;DHT22;13658;44.534;18.694;2022-12-10T00:40:59;11.60;99.90
25825;DHT22;13658;44.534;18.694;2022-12-10T00:43:25;11.50;99.90
25825;DHT22;13658;44.534;18.694;2022-12-10T00:45:52;11.50;99.90
25825;DHT22;13658;44.534;18.694;2022-12-10T00:48:18;11.40;99.90
25825;DHT22;13658;44.534;18.694;2022-12-10T00:50:43;11.30;99.90
25825;DHT22;13658;44.534;18.694;2022-12-10T00:53:09;11.30;99.90
25825;DHT22;13658;44.534;18.694;2022-12-10T00:55:35;11.20;99.90
25825;DHT22;13658;44.534;18.694;2022-12-10T00:58:01;11.10;99.90
25825;DHT22;13658;44.534;18.694;2022-12-10T01:00:27;11.00;99.90
25825;DHT22;13658;44.534;18.694;2022-12-10T01:02:53;11.00;99.90
25825;DHT22;13658;44.534;18.694;2022-12-10T01:05:19;10.90;99.90
25825;DHT22;13658;44.534;18.694;2022-12-10T01:07:45;10.80;99.90
25825;DHT22;13658;44.534;18.694;2022-12-10T01:10:11;10.70;99.90
25825;DHT22;13658;44.534;18.694;2022-12-10T01:12:37;10.60;99.90
25825;DHT22;13658;44.534;18.694;2022-12-10T01:15:03;10.60;99.90
25825;DHT22;13658;44.534;18.694;2022-12-10T01:17:29;10.60;99.90
25825;DHT22;13658;44.534;18.694;2022-12-10T01:19:55;10.60;99.90
25825;DHT22;13658;44.534;18.694;2022-12-10T01:22:21;10.60;99.90
25825;DHT22;13658;44.534;18.694;2022-12-10T01:24:47;10.60;99.90
25825;DHT22;13658;44.534;18.694;2022-12-10T01:27:13;10.60;99.90
25825;DHT22;13658;44.534;18.694;2022-12-10T01:29:39;10.70;99.90
25825;DHT22;13658;44.534;18.694;2022-12-10T01:32:07;10.60;99.90
25825;DHT22;13658;44.534;18.694;2022-12-10T01:34:35;10.60;99.90
25825;DHT22;13658;44.534;18.694;2022-12-10T01:37:01;10.60;99.90
25825;DHT22;13658;44.534;18.694;2022-12-10T01:39:27;10.50;99.90
25825;DHT22;13658;44.534;18.694;2022-12-10T01:41:58;10.60;99.90
25825;DHT22;13658;44.534;18.694;2022-12-10T01:46:55;10.50;99.90
25825;DHT22;13658;44.534;18.694;2022-12-10T01:49:37;10.50;99.90
25825;DHT22;13658;44.534;18.694;2022-12-10T01:52:06;10.50;99.90
25825;DHT22;13658;44.534;18.694;2022-12-10T01:54:36;10.60;99.90
25825;DHT22;13658;44.534;18.694;2022-12-10T01:57:06;10.50;99.90
25825;DHT22;13658;44.534;18.694;2022-12-10T01:59:34;10.50;99.90
25825;DHT22;13658;44.534;18.694;2022-12-10T02:02:38;10.60;99.90
25825;DHT22;13658;44.534;18.694;2022-12-10T02:05:25;10.60;99.90
25825;DHT22;13658;44.534;18.694;2022-12-10T02:16:11;10.80;99.90
25825;DHT22;13658;44.534;18.694;2022-12-10T02:21:42;10.80;99.90
25825;DHT22;13658;44.534;18.694;2022-12-10T02:24:18;10.90;99.90
25825;DHT22;13658;44.534;18.694;2022-12-10T02:27:02;10.80;99.90
25825;DHT22;13658;44.534;18.694;2022-12-10T02:29:30;10.80;99.90
25825;DHT22;13658;44.534;18.694;2022-12-10T02:32:06;10.70;99.90
25825;DHT22;13658;44.534;18.694;2022-12-10T02:34:40;10.70;99.90
25825;DHT22;13658;44.534;18.694;2022-12-10T02:37:12;10.60;99.90
25825;DHT22;13658;44.534;18.694;2022-12-10T02:39:45;10.60;99.90
25825;DHT22;13658;44.534;18.694;2022-12-10T02:42:15;10.60;99.90
25825;DHT22;13658;44.534;18.694;2022-12-10T02:44:44;10.60;99.90
25825;DHT22;13658;44.534;18.694;2022-12-10T02:47:13;10.60;99.90
25825;DHT22;13658;44.534;18.694;2022-12-10T02:49:47;10.60;99.90
25825;DHT22;13658;44.534;18.694;2022-12-10T02:52:15;10.60;99.90
25825;DHT22;13658;44.534;18.694;2022-12-10T02:54:47;10.60;99.90
25825;DHT22;13658;44.534;18.694;2022-12-10T03:08:50;10.30;99.90
25825;DHT22;13658;44.534;18.694;2022-12-10T03:11:22;10.20;99.90
25825;DHT22;13658;44.534;18.694;2022-12-10T03:14:02;10.10;99.90
25825;DHT22;13658;44.534;18.694;2022-12-10T03:16:42;10.10;99.90
25825;DHT22;13658;44.534;18.694;2022-12-10T03:19:16;10.10;99.90
25825;DHT22;13658;44.534;18.694;2022-12-10T03:21:45;10.20;99.90
25825;DHT22;13658;44.534;18.694;2022-12-10T03:24:12;10.10;99.90
25825;DHT22;13658;44.534;18.694;2022-12-10T03:26:41;10.00;99.90
25825;DHT22;13658;44.534;18.694;2022-12-10T03:29:18;9.90;99.90
25825;DHT22;13658;44.534;18.694;2022-12-10T03:31:44;9.90;99.90
25825;DHT22;13658;44.534;18.694;2022-12-10T03:34:11;9.80;99.90
25825;DHT22;13658;44.534;18.694;2022-12-10T03:36:38;9.80;99.90
25825;DHT22;13658;44.534;18.694;2022-12-10T03:39:05;9.80;99.90
25825;DHT22;13658;44.534;18.694;2022-12-10T03:41:31;9.80;99.90
25825;DHT22;13658;44.534;18.694;2022-12-10T03:43:59;9.80;99.90
25825;DHT22;13658;44.534;18.694;2022-12-10T03:46:27;9.80;99.90
25825;DHT22;13658;44.534;18.694;2022-12-10T03:48:57;9.80;99.90
25825;DHT22;13658;44.534;18.694;2022-12-10T03:51:24;9.90;99.90
25825;DHT22;13658;44.534;18.694;2022-12-10T03:53:50;9.90;99.90
25825;DHT22;13658;44.534;18.694;2022-12-10T03:56:18;9.90;99.90
25825;DHT22;13658;44.534;18.694;2022-12-10T03:58:44;10.00;99.90
25825;DHT22;13658;44.534;18.694;2022-12-10T04:01:10;10.00;99.90
25825;DHT22;13658;44.534;18.694;2022-12-10T04:03:38;10.10;99.90
25825;DHT22;13658;44.534;18.694;2022-12-10T04:06:07;10.10;99.90
25825;DHT22;13658;44.534;18.694;2022-12-10T04:08:34;10.00;99.90
25825;DHT22;13658;44.534;18.694;2022-12-10T04:11:09;10.10;99.90
25825;DHT22;13658;44.534;18.694;2022-12-10T04:13:37;10.10;99.90
25825;DHT22;13658;44.534;18.694;2022-12-10T04:16:23;10.10;99.90
25825;DHT22;13658;44.534;18.694;2022-12-10T04:18:53;10.10;99.90
25825;DHT22;13658;44.534;18.694;2022-12-10T04:21:19;10.10;99.90
25825;DHT22;13658;44.534;18.694;2022-12-10T04:24:03;10.10;99.90
25825;DHT22;13658;44.534;18.694;2022-12-10T04:26:48;10.10;99.90
25825;DHT22;13658;44.534;18.694;2022-12-10T04:29:22;10.20;99.90
25825;DHT22;13658;44.534;18.694;2022-12-10T04:31:49;10.10;99.90
25825;DHT22;13658;44.534;18.694;2022-12-10T04:34:15;10.00;99.90
25825;DHT22;13658;44.534;18.694;2022-12-10T04:36:41;10.00;99.90
25825;DHT22;13658;44.534;18.694;2022-12-10T04:39:07;9.90;99.90
25825;DHT22;13658;44.534;18.694;2022-12-10T04:41:33;9.90;99.90
25825;DHT22;13658;44.534;18.694;2022-12-10T04:43:59;9.90;99.90
25825;DHT22;13658;44.534;18.694;2022-12-10T04:46:25;9.90;99.90
25825;DHT22;13658;44.534;18.694;2022-12-10T04:48:50;9.90;99.90
25825;DHT22;13658;44.534;18.694;2022-12-10T04:51:16;9.90;99.90
25825;DHT22;13658;44.534;18.694;2022-12-10T04:53:43;9.90;99.90
25825;DHT22;13658;44.534;18.694;2022-12-10T04:56:09;10.00;99.90
25825;DHT22;13658;44.534;18.694;2022-12-10T04:58:35;10.00;99.90
25825;DHT22;13658;44.534;18.694;2022-12-10T05:01:06;10.10;99.90
25825;DHT22;13658;44.534;18.694;2022-12-10T05:03:33;10.20;99.90
25825;DHT22;13658;44.534;18.694;2022-12-10T05:06:03;10.20;99.90
25825;DHT22;13658;44.534;18.694;2022-12-10T05:08:30;10.20;99.90
25825;DHT22;13658;44.534;18.694;2022-12-10T05:11:03;10.20;99.90
25825;DHT22;13658;44.534;18.694;2022-12-10T05:13:31;10.20;99.90
25825;DHT22;13658;44.534;18.694;2022-12-10T05:15:57;10.20;99.90
25825;DHT22;13658;44.534;18.694;2022-12-10T05:18:23;10.20;99.90
25825;DHT22;13658;44.534;18.694;2022-12-10T05:20:49;10.20;99.90
25825;DHT22;13658;44.534;18.694;2022-12-10T05:23:15;10.20;99.90
25825;DHT22;13658;44.534;18.694;2022-12-10T05:26:13;10.20;99.90
25825;DHT22;13658;44.534;18.694;2022-12-10T05:28:42;10.20;99.90
25825;DHT22;13658;44.534;18.694;2022-12-10T05:31:23;10.30;99.90
25825;DHT22;13658;44.534;18.694;2022-12-10T05:33:50;10.30;99.90
25825;DHT22;13658;44.534;18.694;2022-12-10T05:36:18;10.20;99.90
25825;DHT22;13658;44.534;18.694;2022-12-10T05:38:44;10.20;99.90
25825;DHT22;13658;44.534;18.694;2022-12-10T05:41:31;10.30;99.90
25825;DHT22;13658;44.534;18.694;2022-12-10T05:43:58;10.30;99.90
25825;DHT22;13658;44.534;18.694;2022-12-10T05:46:27;10.30;99.90
25825;DHT22;13658;44.534;18.694;2022-12-10T05:48:54;10.40;99.90
25825;DHT22;13658;44.534;18.694;2022-12-10T05:51:23;10.40;99.90
25825;DHT22;13658;44.534;18.694;2022-12-10T05:53:49;10.50;99.90
25825;DHT22;13658;44.534;18.694;2022-12-10T05:56:18;10.50;99.90
25825;DHT22;13658;44.534;18.694;2022-12-10T05:58:46;10.50;99.90
25825;DHT22;13658;44.534;18.694;2022-12-10T06:01:15;10.50;99.90
25825;DHT22;13658;44.534;18.694;2022-12-10T06:03:42;10.50;99.90
25825;DHT22;13658;44.534;18.694;2022-12-10T06:06:09;10.50;99.90
25825;DHT22;13658;44.534;18.694;2022-12-10T06:08:36;10.50;99.90
25825;DHT22;13658;44.534;18.694;2022-12-10T06:11:04;10.40;99.90
25825;DHT22;13658;44.534;18.694;2022-12-10T06:13:31;10.50;99.90
25825;DHT22;13658;44.534;18.694;2022-12-10T06:15:57;10.50;99.90
25825;DHT22;13658;44.534;18.694;2022-12-10T06:18:22;10.50;99.90
25825;DHT22;13658;44.534;18.694;2022-12-10T06:20:48;10.50;99.90
25825;DHT22;13658;44.534;18.694;2022-12-10T06:23:14;10.50;99.90
25825;DHT22;13658;44.534;18.694;2022-12-10T06:25:40;10.50;99.90
25825;DHT22;13658;44.534;18.694;2022-12-10T06:28:07;10.50;99.90
25825;DHT22;13658;44.534;18.694;2022-12-10T06:30:34;10.50;99.90
25825;DHT22;13658;44.534;18.694;2022-12-10T06:33:00;10.60;99.90
25825;DHT22;13658;44.534;18.694;2022-12-10T06:35:26;10.70;99.90
25825;DHT22;13658;44.534;18.694;2022-12-10T06:37:53;10.80;99.90
25825;DHT22;13658;44.534;18.694;2022-12-10T06:40:19;10.90;99.90
25825;DHT22;13658;44.534;18.694;2022-12-10T06:42:45;10.80;99.90
25825;DHT22;13658;44.534;18.694;2022-12-10T06:45:11;10.80;99.90
25825;DHT22;13658;44.534;18.694;2022-12-10T06:47:39;10.80;99.90
25825;DHT22;13658;44.534;18.694;2022-12-10T06:50:08;11.00;99.90
25825;DHT22;13658;44.534;18.694;2022-12-10T06:52:37;11.10;99.90
25825;DHT22;13658;44.534;18.694;2022-12-10T06:55:05;11.10;99.90
25825;DHT22;13658;44.534;18.694;2022-12-10T06:57:32;11.30;99.90
25825;DHT22;13658;44.534;18.694;2022-12-10T07:00:00;11.40;99.90
25825;DHT22;13658;44.534;18.694;2022-12-10T07:02:26;11.30;99.90
25825;DHT22;13658;44.534;18.694;2022-12-10T07:04:51;11.30;99.90
25825;DHT22;13658;44.534;18.694;2022-12-10T07:07:18;11.40;99.90
25825;DHT22;13658;44.534;18.694;2022-12-10T07:09:44;11.50;99.90
25825;DHT22;13658;44.534;18.694;2022-12-10T07:12:10;11.60;99.90
25825;DHT22;13658;44.534;18.694;2022-12-10T07:14:36;11.60;99.90
25825;DHT22;13658;44.534;18.694;2022-12-10T07:17:02;11.70;99.90
25825;DHT22;13658;44.534;18.694;2022-12-10T07:19:28;11.50;99.90
25825;DHT22;13658;44.534;18.694;2022-12-10T07:21:54;11.50;99.90
25825;DHT22;13658;44.534;18.694;2022-12-10T07:24:20;11.50;99.90
25825;DHT22;13658;44.534;18.694;2022-12-10T07:26:46;11.50;99.90
25825;DHT22;13658;44.534;18.694;2022-12-10T07:29:15;11.50;99.90
25825;DHT22;13658;44.534;18.694;2022-12-10T07:31:42;11.60;99.90
25825;DHT22;13658;44.534;18.694;2022-12-10T07:34:09;11.60;99.90
25825;DHT22;13658;44.534;18.694;2022-12-10T07:36:36;11.60;99.90
25825;DHT22;13658;44.534;18.694;2022-12-10T07:39:08;11.60;99.90
25825;DHT22;13658;44.534;18.694;2022-12-10T07:41:34;11.60;99.90
25825;DHT22;13658;44.534;18.694;2022-12-10T07:44:05;11.80;99.90
25825;DHT22;13658;44.534;18.694;2022-12-10T07:46:32;11.90;99.90
25825;DHT22;13658;44.534;18.694;2022-12-10T07:49:02;12.00;99.90
25825;DHT22;13658;44.534;18.694;2022-12-10T07:51:29;12.00;99.90
25825;DHT22;13658;44.534;18.694;2022-12-10T07:53:56;12.00;99.90
25825;DHT22;13658;44.534;18.694;2022-12-10T07:56:22;12.30;99.90
25825;DHT22;13658;44.534;18.694;2022-12-10T07:58:50;12.50;99.90
25825;DHT22;13658;44.534;18.694;2022-12-10T08:01:20;12.90;99.90
25825;DHT22;13658;44.534;18.694;2022-12-10T08:03:49;13.20;99.90
25825;DHT22;13658;44.534;18.694;2022-12-10T08:06:19;13.50;99.90
25825;DHT22;13658;44.534;18.694;2022-12-10T08:08:46;13.70;99.90
25825;DHT22;13658;44.534;18.694;2022-12-10T08:11:13;13.70;99.90
25825;DHT22;13658;44.534;18.694;2022-12-10T08:13:39;13.70;99.90
25825;DHT22;13658;44.534;18.694;2022-12-10T08:16:17;13.80;99.90
25825;DHT22;13658;44.534;18.694;2022-12-10T08:19:03;14.00;99.90
25825;DHT22;13658;44.534;18.694;2022-12-10T08:21:31;14.30;99.90
25825;DHT22;13658;44.534;18.694;2022-12-10T08:24:04;14.40;99.90
25825;DHT22;13658;44.534;18.694;2022-12-10T08:26:32;14.40;99.90
25825;DHT22;13658;44.534;18.694;2022-12-10T08:28:59;14.20;99.90
25825;DHT22;13658;44.534;18.694;2022-12-10T08:31:26;14.20;99.90
25825;DHT22;13658;44.534;18.694;2022-12-10T08:33:53;14.10;99.90
25825;DHT22;13658;44.534;18.694;2022-12-10T08:36:19;14.10;99.90
25825;DHT22;13658;44.534;18.694;2022-12-10T08:38:46;14.20;99.90
25825;DHT22;13658;44.534;18.694;2022-12-10T08:41:20;14.30;99.90
25825;DHT22;13658;44.534;18.694;2022-12-10T08:43:47;14.30;99.90
25825;DHT22;13658;44.534;18.694;2022-12-10T08:46:14;14.20;99.90
25825;DHT22;13658;44.534;18.694;2022-12-10T08:48:41;14.20;99.90
25825;DHT22;13658;44.534;18.694;2022-12-10T08:51:08;14.30;99.90
25825;DHT22;13658;44.534;18.694;2022-12-10T08:53:34;14.20;99.90
25825;DHT22;13658;44.534;18.694;2022-12-10T08:56:01;14.20;99.90
25825;DHT22;13658;44.534;18.694;2022-12-10T08:58:27;14.20;99.90
25825;DHT22;13658;44.534;18.694;2022-12-10T09:00:53;14.20;99.90
25825;DHT22;13658;44.534;18.694;2022-12-10T09:03:19;14.20;99.90
25825;DHT22;13658;44.534;18.694;2022-12-10T09:05:45;14.40;99.90
25825;DHT22;13658;44.534;18.694;2022-12-10T09:08:11;14.50;99.90
25825;DHT22;13658;44.534;18.694;2022-12-10T09:10:38;14.60;99.90
25825;DHT22;13658;44.534;18.694;2022-12-10T09:13:05;14.60;99.90
25825;DHT22;13658;44.534;18.694;2022-12-10T09:15:31;14.70;99.90
25825;DHT22;13658;44.534;18.694;2022-12-10T09:17:57;14.80;99.90
25825;DHT22;13658;44.534;18.694;2022-12-10T09:20:23;14.90;99.90
25825;DHT22;13658;44.534;18.694;2022-12-10T09:22:49;14.90;99.90
25825;DHT22;13658;44.534;18.694;2022-12-10T09:25:15;14.90;99.90
25825;DHT22;13658;44.534;18.694;2022-12-10T09:27:43;14.90;99.90
25825;DHT22;13658;44.534;18.694;2022-12-10T09:30:11;14.80;99.90
25825;DHT22;13658;44.534;18.694;2022-12-10T09:32:37;14.90;99.90
25825;DHT22;13658;44.534;18.694;2022-12-10T09:35:03;14.90;99.90
25825;DHT22;13658;44.534;18.694;2022-12-10T09:37:29;14.90;99.90
25825;DHT22;13658;44.534;18.694;2022-12-10T09:39:55;14.80;99.90
25825;DHT22;13658;44.534;18.694;2022-12-10T09:48:25;14.90;99.90
25825;DHT22;13658;44.534;18.694;2022-12-10T09:53:40;15.20;99.90
25825;DHT22;13658;44.534;18.694;2022-12-10T09:56:09;15.70;99.90
25825;DHT22;13658;44.534;18.694;2022-12-10T09:58:37;15.70;99.90
25825;DHT22;13658;44.534;18.694;2022-12-10T10:01:05;15.70;99.90
25825;DHT22;13658;44.534;18.694;2022-12-10T10:03:36;15.90;99.90
25825;DHT22;13658;44.534;18.694;2022-12-10T10:06:03;16.20;99.90
25825;DHT22;13658;44.534;18.694;2022-12-10T10:08:50;16.60;99.90
25825;DHT22;13658;44.534;18.694;2022-12-10T10:11:20;17.10;99.90
25825;DHT22;13658;44.534;18.694;2022-12-10T10:13:58;16.90;99.90
25825;DHT22;13658;44.534;18.694;2022-12-10T10:16:26;16.90;99.90
25825;DHT22;13658;44.534;18.694;2022-12-10T10:19:03;16.60;99.90
25825;DHT22;13658;44.534;18.694;2022-12-10T10:21:42;16.60;99.90
25825;DHT22;13658;44.534;18.694;2022-12-10T10:24:18;17.10;99.90
25825;DHT22;13658;44.534;18.694;2022-12-10T10:26:45;17.40;99.90
25825;DHT22;13658;44.534;18.694;2022-12-10T10:29:14;17.50;99.90
25825;DHT22;13658;44.534;18.694;2022-12-10T10:31:42;17.70;99.90
25825;DHT22;13658;44.534;18.694;2022-12-10T10:34:20;18.10;99.90
25825;DHT22;13658;44.534;18.694;2022-12-10T10:36:52;18.40;99.90
25825;DHT22;13658;44.534;18.694;2022-12-10T10:39:30;18.40;99.90
25825;DHT22;13658;44.534;18.694;2022-12-10T10:41:58;17.90;99.90
25825;DHT22;13658;44.534;18.694;2022-12-10T10:44:28;17.80;99.90
25825;DHT22;13658;44.534;18.694;2022-12-10T10:46:58;17.70;99.90
25825;DHT22;13658;44.534;18.694;2022-12-10T10:49:27;17.80;99.90
25825;DHT22;13658;44.534;18.694;2022-12-10T10:51:59;17.80;99.90
25825;DHT22;13658;44.534;18.694;2022-12-10T10:54:42;17.80;99.90
25825;DHT22;13658;44.534;18.694;2022-12-10T10:57:23;17.70;99.90
25825;DHT22;13658;44.534;18.694;2022-12-10T10:59:54;17.80;99.90
25825;DHT22;13658;44.534;18.694;2022-12-10T11:02:29;17.60;99.90
25825;DHT22;13658;44.534;18.694;2022-12-10T11:04:56;17.60;99.90
25825;DHT22;13658;44.534;18.694;2022-12-10T11:07:36;17.40;99.90
25825;DHT22;13658;44.534;18.694;2022-12-10T11:10:23;17.20;99.90
25825;DHT22;13658;44.534;18.694;2022-12-10T11:15:37;17.00;99.90
25825;DHT22;13658;44.534;18.694;2022-12-10T11:23:27;17.10;99.90
25825;DHT22;13658;44.534;18.694;2022-12-10T11:42:40;17.30;99.90
25825;DHT22;13658;44.534;18.694;2022-12-10T11:45:18;17.20;99.90
25825;DHT22;13658;44.534;18.694;2022-12-10T11:50:47;17.30;99.90
25825;DHT22;13658;44.534;18.694;2022-12-10T12:15:18;17.10;99.90
25825;DHT22;13658;44.534;18.694;2022-12-10T12:17:50;17.10;99.90
25825;DHT22;13658;44.534;18.694;2022-12-10T12:20:19;17.10;99.90
25825;DHT22;13658;44.534;18.694;2022-12-10T12:23:41;17.10;99.90
25825;DHT22;13658;44.534;18.694;2022-12-10T12:25:42;17.20;99.90
25825;DHT22;13658;44.534;18.694;2022-12-10T12:28:20;17.20;99.90
25825;DHT22;13658;44.534;18.694;2022-12-10T12:30:53;17.20;99.90
25825;DHT22;13658;44.534;18.694;2022-12-10T12:33:32;17.20;99.90
25825;DHT22;13658;44.534;18.694;2022-12-10T12:36:14;17.20;99.90
25825;DHT22;13658;44.534;18.694;2022-12-10T12:42:25;17.20;99.90
25825;DHT22;13658;44.534;18.694;2022-12-10T12:44:59;17.10;99.90
25825;DHT22;13658;44.534;18.694;2022-12-10T12:47:34;16.90;99.90
25825;DHT22;13658;44.534;18.694;2022-12-10T12:50:03;16.80;99.90
25825;DHT22;13658;44.534;18.694;2022-12-10T12:52:43;16.70;99.90
25825;DHT22;13658;44.534;18.694;2022-12-10T12:55:26;16.70;99.90
25825;DHT22;13658;44.534;18.694;2022-12-10T13:00:53;16.60;99.90
25825;DHT22;13658;44.534;18.694;2022-12-10T13:03:36;16.60;99.90
25825;DHT22;13658;44.534;18.694;2022-12-10T13:06:21;16.50;99.90
25825;DHT22;13658;44.534;18.694;2022-12-10T13:11:18;16.40;99.90
25825;DHT22;13658;44.534;18.694;2022-12-10T13:23:00;16.30;99.90
25825;DHT22;13658;44.534;18.694;2022-12-10T13:25:56;16.30;99.90
25825;DHT22;13658;44.534;18.694;2022-12-10T13:34:38;16.20;99.90
25825;DHT22;13658;44.534;18.694;2022-12-10T13:39:32;16.10;99.90
25825;DHT22;13658;44.534;18.694;2022-12-10T13:45:00;16.00;99.90
25825;DHT22;13658;44.534;18.694;2022-12-10T13:50:05;16.00;99.90
25825;DHT22;13658;44.534;18.694;2022-12-10T13:55:38;15.90;99.90
25825;DHT22;13658;44.534;18.694;2022-12-10T14:06:23;15.70;99.90
25825;DHT22;13658;44.534;18.694;2022-12-10T14:09:11;15.70;99.90
25825;DHT22;13658;44.534;18.694;2022-12-10T14:11:39;15.70;99.90
25825;DHT22;13658;44.534;18.694;2022-12-10T14:14:11;15.60;99.90
25825;DHT22;13658;44.534;18.694;2022-12-10T14:16:40;15.60;99.90
25825;DHT22;13658;44.534;18.694;2022-12-10T14:19:11;15.50;99.90
25825;DHT22;13658;44.534;18.694;2022-12-10T14:21:39;15.50;99.90
25825;DHT22;13658;44.534;18.694;2022-12-10T14:24:29;15.40;99.90
25825;DHT22;13658;44.534;18.694;2022-12-10T14:27:02;15.40;99.90
25825;DHT22;13658;44.534;18.694;2022-12-10T14:29:29;15.30;99.90
25825;DHT22;13658;44.534;18.694;2022-12-10T14:31:55;15.20;99.90
25825;DHT22;13658;44.534;18.694;2022-12-10T14:34:25;15.20;99.90
25825;DHT22;13658;44.534;18.694;2022-12-10T14:36:55;15.20;99.90
25825;DHT22;13658;44.534;18.694;2022-12-10T14:39:27;15.10;99.90
25825;DHT22;13658;44.534;18.694;2022-12-10T14:41:57;15.00;99.90
25825;DHT22;13658;44.534;18.694;2022-12-10T14:44:23;15.00;99.90
25825;DHT22;13658;44.534;18.694;2022-12-10T14:46:50;15.00;99.90
25825;DHT22;13658;44.534;18.694;2022-12-10T14:49:25;15.00;99.90
25825;DHT22;13658;44.534;18.694;2022-12-10T14:51:51;15.00;99.90
25825;DHT22;13658;44.534;18.694;2022-12-10T14:54:29;14.90;99.90
25825;DHT22;13658;44.534;18.694;2022-12-10T14:57:02;14.90;99.90
25825;DHT22;13658;44.534;18.694;2022-12-10T14:59:38;14.90;99.90
25825;DHT22;13658;44.534;18.694;2022-12-10T15:02:42;14.80;99.90
25825;DHT22;13658;44.534;18.694;2022-12-10T15:05:15;14.80;99.90
25825;DHT22;13658;44.534;18.694;2022-12-10T15:07:42;14.80;99.90
25825;DHT22;13658;44.534;18.694;2022-12-10T15:10:17;14.70;99.90
25825;DHT22;13658;44.534;18.694;2022-12-10T15:12:48;14.60;99.90
25825;DHT22;13658;44.534;18.694;2022-12-10T15:15:29;14.50;99.90
25825;DHT22;13658;44.534;18.694;2022-12-10T15:28:31;13.00;99.90
25825;DHT22;13658;44.534;18.694;2022-12-10T15:31:13;12.60;99.90
25825;DHT22;13658;44.534;18.694;2022-12-10T15:33:48;12.40;99.90
25825;DHT22;13658;44.534;18.694;2022-12-10T15:39:17;11.80;99.90
25825;DHT22;13658;44.534;18.694;2022-12-10T15:41:50;11.70;99.90
25825;DHT22;13658;44.534;18.694;2022-12-10T15:49:46;11.40;99.90
25825;DHT22;13658;44.534;18.694;2022-12-10T15:52:23;11.20;99.90
25825;DHT22;13658;44.534;18.694;2022-12-10T15:54:51;11.00;99.90
25825;DHT22;13658;44.534;18.694;2022-12-10T15:57:23;10.90;99.90
25825;DHT22;13658;44.534;18.694;2022-12-10T15:59:52;10.90;99.90
25825;DHT22;13658;44.534;18.694;2022-12-10T16:02:41;10.90;99.90
25825;DHT22;13658;44.534;18.694;2022-12-10T16:05:15;10.80;99.90
25825;DHT22;13658;44.534;18.694;2022-12-10T16:07:43;10.80;99.90
25825;DHT22;13658;44.534;18.694;2022-12-10T16:10:10;10.70;99.90
25825;DHT22;13658;44.534;18.694;2022-12-10T16:12:37;10.60;99.90
25825;DHT22;13658;44.534;18.694;2022-12-10T16:15:06;10.60;99.90
25825;DHT22;13658;44.534;18.694;2022-12-10T16:17:32;10.60;99.90
25825;DHT22;13658;44.534;18.694;2022-12-10T16:20:12;10.50;99.90
25825;DHT22;13658;44.534;18.694;2022-12-10T16:22:39;10.40;99.90
25825;DHT22;13658;44.534;18.694;2022-12-10T16:25:05;10.40;99.90
25825;DHT22;13658;44.534;18.694;2022-12-10T16:27:31;10.30;99.90
25825;DHT22;13658;44.534;18.694;2022-12-10T16:29:58;10.20;99.90
25825;DHT22;13658;44.534;18.694;2022-12-10T16:32:24;10.20;99.90
25825;DHT22;13658;44.534;18.694;2022-12-10T16:34:50;10.10;99.90
25825;DHT22;13658;44.534;18.694;2022-12-10T16:37:18;10.10;99.90
25825;DHT22;13658;44.534;18.694;2022-12-10T16:39:43;10.10;99.90
25825;DHT22;13658;44.534;18.694;2022-12-10T16:42:12;10.10;99.90
25825;DHT22;13658;44.534;18.694;2022-12-10T16:44:38;10.10;99.90
25825;DHT22;13658;44.534;18.694;2022-12-10T16:47:11;10.10;99.90
25825;DHT22;13658;44.534;18.694;2022-12-10T16:49:37;10.00;99.90
25825;DHT22;13658;44.534;18.694;2022-12-10T16:52:03;9.90;99.90
25825;DHT22;13658;44.534;18.694;2022-12-10T16:54:30;9.90;99.90
25825;DHT22;13658;44.534;18.694;2022-12-10T16:56:56;9.90;99.90
25825;DHT22;13658;44.534;18.694;2022-12-10T16:59:21;9.90;99.90
25825;DHT22;13658;44.534;18.694;2022-12-10T17:01:47;9.90;99.90
25825;DHT22;13658;44.534;18.694;2022-12-10T17:04:13;9.90;99.90
25825;DHT22;13658;44.534;18.694;2022-12-10T17:06:40;9.80;99.90
25825;DHT22;13658;44.534;18.694;2022-12-10T17:09:05;9.80;99.90
25825;DHT22;13658;44.534;18.694;2022-12-10T17:11:39;9.80;99.90
25825;DHT22;13658;44.534;18.694;2022-12-10T17:14:23;9.70;99.90
25825;DHT22;13658;44.534;18.694;2022-12-10T17:16:50;9.70;99.90
25825;DHT22;13658;44.534;18.694;2022-12-10T17:19:17;9.60;99.90
25825;DHT22;13658;44.534;18.694;2022-12-10T17:21:43;9.70;99.90
25825;DHT22;13658;44.534;18.694;2022-12-10T17:24:09;9.60;99.90
25825;DHT22;13658;44.534;18.694;2022-12-10T17:26:38;9.60;99.90
25825;DHT22;13658;44.534;18.694;2022-12-10T17:29:11;9.50;99.90
25825;DHT22;13658;44.534;18.694;2022-12-10T17:31:38;9.40;99.90
25825;DHT22;13658;44.534;18.694;2022-12-10T17:34:05;9.30;99.90
25825;DHT22;13658;44.534;18.694;2022-12-10T17:36:32;9.30;99.90
25825;DHT22;13658;44.534;18.694;2022-12-10T17:38:58;9.30;99.90
25825;DHT22;13658;44.534;18.694;2022-12-10T17:41:24;9.40;99.90
25825;DHT22;13658;44.534;18.694;2022-12-10T17:43:50;9.40;99.90
25825;DHT22;13658;44.534;18.694;2022-12-10T17:46:23;9.40;99.90
25825;DHT22;13658;44.534;18.694;2022-12-10T17:48:50;9.30;99.90
25825;DHT22;13658;44.534;18.694;2022-12-10T17:51:16;9.30;99.90
25825;DHT22;13658;44.534;18.694;2022-12-10T17:53:42;9.30;99.90
25825;DHT22;13658;44.534;18.694;2022-12-10T17:56:15;9.20;99.90
25825;DHT22;13658;44.534;18.694;2022-12-10T17:58:42;9.20;99.90
25825;DHT22;13658;44.534;18.694;2022-12-10T18:01:08;9.20;99.90